sensor_id;sensor_type;location;lat;lon;timestamp;temperature;humidity
60860;DHT22;46694;54.382;9.708;2023-06-26T00:01:46;21.40;99.90
60860;DHT22;46694;54.382;9.708;2023-06-26T00:04:26;21.30;99.90
60860;DHT22;46694;54.382;9.708;2023-06-26T00:07:06;21.30;99.90
60860;DHT22;46694;54.382;9.708;2023-06-26T00:09:45;21.30;99.90
60860;DHT22;46694;54.382;9.708;2023-06-26T00:12:25;21.30;99.90
60860;DHT22;46694;54.382;9.708;2023-06-26T00:15:05;21.30;99.90
60860;DHT22;46694;54.382;9.708;2023-06-26T00:17:46;21.30;99.90
60860;DHT22;46694;54.382;9.708;2023-06-26T00:20:26;21.30;99.90
60860;DHT22;46694;54.382;9.708;2023-06-26T00:23:06;21.30;99.90
60860;DHT22;46694;54.382;9.708;2023-06-26T00:25:46;21.20;99.90
60860;DHT22;46694;54.382;9.708;2023-06-26T00:28:25;21.20;99.90
60860;DHT22;46694;54.382;9.708;2023-06-26T00:31:05;21.20;99.90
60860;DHT22;46694;54.382;9.708;2023-06-26T00:33:45;21.20;99.90
60860;DHT22;46694;54.382;9.708;2023-06-26T00:36:24;21.20;99.90
60860;DHT22;46694;54.382;9.708;2023-06-26T00:39:05;21.10;99.90
60860;DHT22;46694;54.382;9.708;2023-06-26T00:41:45;21.10;99.90
60860;DHT22;46694;54.382;9.708;2023-06-26T00:44:24;21.10;99.90
60860;DHT22;46694;54.382;9.708;2023-06-26T00:47:04;21.00;99.90
60860;DHT22;46694;54.382;9.708;2023-06-26T00:49:44;21.00;99.90
60860;DHT22;46694;54.382;9.708;2023-06-26T00:52:23;21.00;99.90
60860;DHT22;46694;54.382;9.708;2023-06-26T00:55:04;20.90;99.90
60860;DHT22;46694;54.382;9.708;2023-06-26T00:57:44;21.00;99.90
60860;DHT22;46694;54.382;9.708;2023-06-26T01:00:24;20.90;99.90
60860;DHT22;46694;54.382;9.708;2023-06-26T01:03:04;20.80;99.90
60860;DHT22;46694;54.382;9.708;2023-06-26T01:05:44;20.80;99.90
60860;DHT22;46694;54.382;9.708;2023-06-26T01:08:25;20.80;99.90
60860;DHT22;46694;54.382;9.708;2023-06-26T01:11:06;20.70;99.90
60860;DHT22;46694;54.382;9.708;2023-06-26T01:13:46;20.70;99.90
60860;DHT22;46694;54.382;9.708;2023-06-26T01:16:28;20.70;99.90
60860;DHT22;46694;54.382;9.708;2023-06-26T01:19:24;20.80;99.90
60860;DHT22;46694;54.382;9.708;2023-06-26T01:28:10;20.70;99.90
60860;DHT22;46694;54.382;9.708;2023-06-26T01:30:51;20.70;99.90
60860;DHT22;46694;54.382;9.708;2023-06-26T01:33:32;20.60;99.90
60860;DHT22;46694;54.382;9.708;2023-06-26T01:36:12;20.60;99.90
60860;DHT22;46694;54.382;9.708;2023-06-26T01:38:52;20.60;99.90
60860;DHT22;46694;54.382;9.708;2023-06-26T01:41:31;20.50;99.90
60860;DHT22;46694;54.382;9.708;2023-06-26T01:44:26;20.50;99.90
60860;DHT22;46694;54.382;9.708;2023-06-26T01:47:06;20.50;99.90
60860;DHT22;46694;54.382;9.708;2023-06-26T01:53:08;20.30;99.90
60860;DHT22;46694;54.382;9.708;2023-06-26T01:55:54;20.30;99.90
60860;DHT22;46694;54.382;9.708;2023-06-26T01:58:35;20.30;99.90
60860;DHT22;46694;54.382;9.708;2023-06-26T02:01:17;20.30;99.90
60860;DHT22;46694;54.382;9.708;2023-06-26T02:03:56;20.30;99.90
60860;DHT22;46694;54.382;9.708;2023-06-26T02:06:36;20.30;99.90
60860;DHT22;46694;54.382;9.708;2023-06-26T02:09:16;20.30;99.90
60860;DHT22;46694;54.382;9.708;2023-06-26T02:11:55;20.30;99.90
60860;DHT22;46694;54.382;9.708;2023-06-26T02:14:35;20.30;99.90
60860;DHT22;46694;54.382;9.708;2023-06-26T02:17:15;20.30;99.90
60860;DHT22;46694;54.382;9.708;2023-06-26T02:19:54;20.30;99.90
60860;DHT22;46694;54.382;9.708;2023-06-26T02:22:34;20.20;99.90
60860;DHT22;46694;54.382;9.708;2023-06-26T02:25:14;20.20;99.90
60860;DHT22;46694;54.382;9.708;2023-06-26T02:27:54;20.20;99.90
60860;DHT22;46694;54.382;9.708;2023-06-26T02:30:33;20.20;99.90
60860;DHT22;46694;54.382;9.708;2023-06-26T02:33:13;20.20;99.90
60860;DHT22;46694;54.382;9.708;2023-06-26T02:35:53;20.10;99.90
60860;DHT22;46694;54.382;9.708;2023-06-26T02:38:32;20.10;99.90
60860;DHT22;46694;54.382;9.708;2023-06-26T02:41:12;20.00;99.90
60860;DHT22;46694;54.382;9.708;2023-06-26T02:43:52;20.00;99.90
60860;DHT22;46694;54.382;9.708;2023-06-26T02:46:31;19.90;99.90
60860;DHT22;46694;54.382;9.708;2023-06-26T02:49:12;19.80;99.90
60860;DHT22;46694;54.382;9.708;2023-06-26T02:51:51;19.70;99.90
60860;DHT22;46694;54.382;9.708;2023-06-26T02:54:31;19.70;99.90
60860;DHT22;46694;54.382;9.708;2023-06-26T02:57:11;19.60;99.90
60860;DHT22;46694;54.382;9.708;2023-06-26T02:59:52;19.50;99.90
60860;DHT22;46694;54.382;9.708;2023-06-26T03:02:31;19.50;99.90
60860;DHT22;46694;54.382;9.708;2023-06-26T03:05:11;19.50;99.90
60860;DHT22;46694;54.382;9.708;2023-06-26T03:07:52;19.40;99.90
60860;DHT22;46694;54.382;9.708;2023-06-26T03:10:32;19.40;99.90
60860;DHT22;46694;54.382;9.708;2023-06-26T03:13:12;19.40;99.90
60860;DHT22;46694;54.382;9.708;2023-06-26T03:15:51;19.40;99.90
60860;DHT22;46694;54.382;9.708;2023-06-26T03:18:31;19.40;99.90
60860;DHT22;46694;54.382;9.708;2023-06-26T03:21:11;19.40;99.90
60860;DHT22;46694;54.382;9.708;2023-06-26T03:23:50;19.40;99.90
60860;DHT22;46694;54.382;9.708;2023-06-26T03:26:29;19.40;99.90
60860;DHT22;46694;54.382;9.708;2023-06-26T03:29:09;19.40;99.90
60860;DHT22;46694;54.382;9.708;2023-06-26T03:31:49;19.40;99.90
60860;DHT22;46694;54.382;9.708;2023-06-26T03:34:29;19.30;99.90
60860;DHT22;46694;54.382;9.708;2023-06-26T03:37:08;19.30;99.90
60860;DHT22;46694;54.382;9.708;2023-06-26T03:39:48;19.30;99.90
60860;DHT22;46694;54.382;9.708;2023-06-26T03:42:27;19.40;99.90
60860;DHT22;46694;54.382;9.708;2023-06-26T03:45:07;19.40;99.90
60860;DHT22;46694;54.382;9.708;2023-06-26T03:47:48;19.40;99.90
60860;DHT22;46694;54.382;9.708;2023-06-26T03:50:29;19.40;99.90
60860;DHT22;46694;54.382;9.708;2023-06-26T03:53:08;19.50;99.90
60860;DHT22;46694;54.382;9.708;2023-06-26T03:55:48;19.50;99.90
60860;DHT22;46694;54.382;9.708;2023-06-26T03:58:28;19.50;99.90
60860;DHT22;46694;54.382;9.708;2023-06-26T04:01:08;19.50;99.90
60860;DHT22;46694;54.382;9.708;2023-06-26T04:03:47;19.60;99.90
60860;DHT22;46694;54.382;9.708;2023-06-26T04:06:27;19.70;99.90
60860;DHT22;46694;54.382;9.708;2023-06-26T04:09:06;19.80;99.90
60860;DHT22;46694;54.382;9.708;2023-06-26T04:11:46;19.90;99.90
60860;DHT22;46694;54.382;9.708;2023-06-26T04:14:25;20.10;99.90
60860;DHT22;46694;54.382;9.708;2023-06-26T04:17:05;20.10;99.90
60860;DHT22;46694;54.382;9.708;2023-06-26T04:19:45;20.20;99.90
60860;DHT22;46694;54.382;9.708;2023-06-26T04:22:24;20.20;99.90
60860;DHT22;46694;54.382;9.708;2023-06-26T04:25:05;20.30;99.90
60860;DHT22;46694;54.382;9.708;2023-06-26T04:27:45;20.40;99.90
60860;DHT22;46694;54.382;9.708;2023-06-26T04:30:25;20.50;99.90
60860;DHT22;46694;54.382;9.708;2023-06-26T04:33:05;20.60;99.90
60860;DHT22;46694;54.382;9.708;2023-06-26T04:35:45;20.80;99.90
60860;DHT22;46694;54.382;9.708;2023-06-26T04:38:27;20.90;99.90
60860;DHT22;46694;54.382;9.708;2023-06-26T04:41:07;21.00;99.90
60860;DHT22;46694;54.382;9.708;2023-06-26T04:43:47;21.20;99.90
60860;DHT22;46694;54.382;9.708;2023-06-26T04:46:26;21.40;99.90
60860;DHT22;46694;54.382;9.708;2023-06-26T04:49:10;21.60;99.90
60860;DHT22;46694;54.382;9.708;2023-06-26T04:51:49;21.80;99.90
60860;DHT22;46694;54.382;9.708;2023-06-26T04:54:29;21.90;99.90
60860;DHT22;46694;54.382;9.708;2023-06-26T04:57:09;22.10;99.90
60860;DHT22;46694;54.382;9.708;2023-06-26T04:59:50;22.20;99.90
60860;DHT22;46694;54.382;9.708;2023-06-26T05:02:30;22.40;99.90
60860;DHT22;46694;54.382;9.708;2023-06-26T05:05:10;22.60;99.90
60860;DHT22;46694;54.382;9.708;2023-06-26T05:07:53;22.80;99.90
60860;DHT22;46694;54.382;9.708;2023-06-26T05:10:34;23.00;99.90
60860;DHT22;46694;54.382;9.708;2023-06-26T05:13:15;23.20;99.90
60860;DHT22;46694;54.382;9.708;2023-06-26T05:15:56;23.40;99.90
60860;DHT22;46694;54.382;9.708;2023-06-26T05:18:36;23.50;99.90
60860;DHT22;46694;54.382;9.708;2023-06-26T05:21:16;23.60;99.90
60860;DHT22;46694;54.382;9.708;2023-06-26T05:23:57;23.80;99.90
60860;DHT22;46694;54.382;9.708;2023-06-26T05:26:37;24.00;99.90
60860;DHT22;46694;54.382;9.708;2023-06-26T05:29:17;24.10;99.90
60860;DHT22;46694;54.382;9.708;2023-06-26T05:35:59;24.50;99.90
60860;DHT22;46694;54.382;9.708;2023-06-26T05:38:39;24.60;99.90
60860;DHT22;46694;54.382;9.708;2023-06-26T05:41:19;24.70;99.90
60860;DHT22;46694;54.382;9.708;2023-06-26T05:43:58;24.90;99.90
60860;DHT22;46694;54.382;9.708;2023-06-26T05:46:38;25.10;99.90
60860;DHT22;46694;54.382;9.708;2023-06-26T05:49:17;25.30;99.90
60860;DHT22;46694;54.382;9.708;2023-06-26T05:51:57;25.40;99.90
60860;DHT22;46694;54.382;9.708;2023-06-26T05:54:37;25.50;99.90
60860;DHT22;46694;54.382;9.708;2023-06-26T05:57:18;25.70;99.90
60860;DHT22;46694;54.382;9.708;2023-06-26T05:59:58;25.80;99.90
60860;DHT22;46694;54.382;9.708;2023-06-26T06:02:38;25.90;99.90
60860;DHT22;46694;54.382;9.708;2023-06-26T06:05:18;26.00;99.90
60860;DHT22;46694;54.382;9.708;2023-06-26T06:07:58;26.10;99.90
60860;DHT22;46694;54.382;9.708;2023-06-26T06:10:38;26.30;99.90
60860;DHT22;46694;54.382;9.708;2023-06-26T06:13:17;26.40;99.90
60860;DHT22;46694;54.382;9.708;2023-06-26T06:15:57;26.50;99.90
60860;DHT22;46694;54.382;9.708;2023-06-26T06:18:37;26.70;99.90
60860;DHT22;46694;54.382;9.708;2023-06-26T06:21:16;26.80;99.90
60860;DHT22;46694;54.382;9.708;2023-06-26T06:23:56;26.90;99.90
60860;DHT22;46694;54.382;9.708;2023-06-26T06:26:36;27.00;99.90
60860;DHT22;46694;54.382;9.708;2023-06-26T06:29:15;27.30;99.90
60860;DHT22;46694;54.382;9.708;2023-06-26T06:31:55;27.40;99.90
60860;DHT22;46694;54.382;9.708;2023-06-26T06:34:35;27.50;99.90
60860;DHT22;46694;54.382;9.708;2023-06-26T06:37:15;27.70;99.90
60860;DHT22;46694;54.382;9.708;2023-06-26T06:39:54;27.90;99.90
60860;DHT22;46694;54.382;9.708;2023-06-26T06:42:34;28.00;99.90
60860;DHT22;46694;54.382;9.708;2023-06-26T06:45:14;28.30;99.90
60860;DHT22;46694;54.382;9.708;2023-06-26T06:47:54;28.60;99.90
60860;DHT22;46694;54.382;9.708;2023-06-26T06:50:33;28.90;99.90
60860;DHT22;46694;54.382;9.708;2023-06-26T06:53:13;29.20;99.90
60860;DHT22;46694;54.382;9.708;2023-06-26T06:55:53;29.50;99.30
60860;DHT22;46694;54.382;9.708;2023-06-26T06:58:32;29.60;98.90
60860;DHT22;46694;54.382;9.708;2023-06-26T07:01:13;29.90;98.90
60860;DHT22;46694;54.382;9.708;2023-06-26T07:03:53;30.20;98.50
60860;DHT22;46694;54.382;9.708;2023-06-26T07:06:32;30.50;97.60
60860;DHT22;46694;54.382;9.708;2023-06-26T07:09:12;30.80;97.20
60860;DHT22;46694;54.382;9.708;2023-06-26T07:11:51;30.90;96.20
60860;DHT22;46694;54.382;9.708;2023-06-26T07:14:31;31.00;96.10
60860;DHT22;46694;54.382;9.708;2023-06-26T07:17:10;31.10;95.70
60860;DHT22;46694;54.382;9.708;2023-06-26T07:19:50;31.20;95.50
60860;DHT22;46694;54.382;9.708;2023-06-26T07:22:29;31.50;95.00
60860;DHT22;46694;54.382;9.708;2023-06-26T07:25:09;31.70;94.60
60860;DHT22;46694;54.382;9.708;2023-06-26T07:27:48;31.80;93.90
60860;DHT22;46694;54.382;9.708;2023-06-26T07:30:28;32.00;93.30
60860;DHT22;46694;54.382;9.708;2023-06-26T07:33:07;32.10;92.70
60860;DHT22;46694;54.382;9.708;2023-06-26T07:35:47;32.30;91.90
60860;DHT22;46694;54.382;9.708;2023-06-26T07:38:27;32.30;90.90
60860;DHT22;46694;54.382;9.708;2023-06-26T07:41:06;32.40;90.40
60860;DHT22;46694;54.382;9.708;2023-06-26T07:43:46;32.40;89.30
60860;DHT22;46694;54.382;9.708;2023-06-26T07:46:25;32.50;88.80
60860;DHT22;46694;54.382;9.708;2023-06-26T07:49:05;32.80;87.80
60860;DHT22;46694;54.382;9.708;2023-06-26T07:51:45;33.20;86.00
60860;DHT22;46694;54.382;9.708;2023-06-26T07:54:24;33.10;85.00
60860;DHT22;46694;54.382;9.708;2023-06-26T07:57:05;33.00;84.50
60860;DHT22;46694;54.382;9.708;2023-06-26T07:59:52;32.70;83.70
60860;DHT22;46694;54.382;9.708;2023-06-26T08:02:31;32.50;83.30
60860;DHT22;46694;54.382;9.708;2023-06-26T08:05:11;32.40;82.80
60860;DHT22;46694;54.382;9.708;2023-06-26T08:07:50;32.30;82.10
60860;DHT22;46694;54.382;9.708;2023-06-26T08:10:30;32.50;82.60
60860;DHT22;46694;54.382;9.708;2023-06-26T08:13:09;32.90;82.70
60860;DHT22;46694;54.382;9.708;2023-06-26T08:15:49;33.30;80.60
60860;DHT22;46694;54.382;9.708;2023-06-26T08:18:29;33.50;80.10
60860;DHT22;46694;54.382;9.708;2023-06-26T08:21:08;33.80;79.40
60860;DHT22;46694;54.382;9.708;2023-06-26T08:23:52;34.10;77.80
60860;DHT22;46694;54.382;9.708;2023-06-26T08:26:31;33.80;76.00
60860;DHT22;46694;54.382;9.708;2023-06-26T08:29:11;33.10;76.20
60860;DHT22;46694;54.382;9.708;2023-06-26T08:31:50;32.40;77.40
60860;DHT22;46694;54.382;9.708;2023-06-26T08:34:30;31.70;79.40
60860;DHT22;46694;54.382;9.708;2023-06-26T08:37:10;31.10;81.80
60860;DHT22;46694;54.382;9.708;2023-06-26T08:39:49;30.30;85.80
60860;DHT22;46694;54.382;9.708;2023-06-26T08:42:29;29.60;90.20
60860;DHT22;46694;54.382;9.708;2023-06-26T08:45:08;28.90;92.00
60860;DHT22;46694;54.382;9.708;2023-06-26T08:47:51;28.40;93.70
60860;DHT22;46694;54.382;9.708;2023-06-26T08:50:34;28.20;95.10
60860;DHT22;46694;54.382;9.708;2023-06-26T08:53:33;28.10;95.70
60860;DHT22;46694;54.382;9.708;2023-06-26T08:56:22;28.00;95.90
60860;DHT22;46694;54.382;9.708;2023-06-26T08:59:01;27.90;96.30
60860;DHT22;46694;54.382;9.708;2023-06-26T09:01:41;27.90;96.50
60860;DHT22;46694;54.382;9.708;2023-06-26T09:04:21;27.90;96.50
60860;DHT22;46694;54.382;9.708;2023-06-26T09:07:00;27.70;96.70
60860;DHT22;46694;54.382;9.708;2023-06-26T09:09:41;27.50;97.00
60860;DHT22;46694;54.382;9.708;2023-06-26T09:12:20;27.20;97.60
60860;DHT22;46694;54.382;9.708;2023-06-26T09:15:07;27.00;98.10
60860;DHT22;46694;54.382;9.708;2023-06-26T09:17:48;26.90;98.00
60860;DHT22;46694;54.382;9.708;2023-06-26T09:20:28;26.80;97.70
60860;DHT22;46694;54.382;9.708;2023-06-26T09:23:10;26.60;97.70
60860;DHT22;46694;54.382;9.708;2023-06-26T09:25:51;26.50;98.30
60860;DHT22;46694;54.382;9.708;2023-06-26T09:29:04;26.90;98.90
60860;DHT22;46694;54.382;9.708;2023-06-26T09:31:44;27.70;97.90
60860;DHT22;46694;54.382;9.708;2023-06-26T09:34:30;28.00;96.60
60860;DHT22;46694;54.382;9.708;2023-06-26T09:37:14;27.70;96.30
60860;DHT22;46694;54.382;9.708;2023-06-26T09:39:56;27.50;96.40
60860;DHT22;46694;54.382;9.708;2023-06-26T09:42:37;27.30;96.60
60860;DHT22;46694;54.382;9.708;2023-06-26T09:45:20;27.00;96.90
60860;DHT22;46694;54.382;9.708;2023-06-26T09:48:00;26.60;97.20
60860;DHT22;46694;54.382;9.708;2023-06-26T09:50:42;26.20;97.80
60860;DHT22;46694;54.382;9.708;2023-06-26T09:53:22;25.80;98.40
60860;DHT22;46694;54.382;9.708;2023-06-26T09:56:06;25.50;99.00
60860;DHT22;46694;54.382;9.708;2023-06-26T09:58:46;25.30;99.50
60860;DHT22;46694;54.382;9.708;2023-06-26T10:01:27;25.10;99.90
60860;DHT22;46694;54.382;9.708;2023-06-26T10:04:06;24.80;99.90
60860;DHT22;46694;54.382;9.708;2023-06-26T10:06:47;24.60;99.90
60860;DHT22;46694;54.382;9.708;2023-06-26T10:09:29;24.20;99.90
60860;DHT22;46694;54.382;9.708;2023-06-26T10:12:20;23.80;99.90
60860;DHT22;46694;54.382;9.708;2023-06-26T10:15:04;23.40;99.90
60860;DHT22;46694;54.382;9.708;2023-06-26T10:17:46;23.00;99.90
60860;DHT22;46694;54.382;9.708;2023-06-26T10:20:27;22.70;99.90
60860;DHT22;46694;54.382;9.708;2023-06-26T10:23:07;22.40;99.90
60860;DHT22;46694;54.382;9.708;2023-06-26T10:25:48;22.30;99.90
60860;DHT22;46694;54.382;9.708;2023-06-26T10:28:31;22.30;99.90
60860;DHT22;46694;54.382;9.708;2023-06-26T10:31:12;22.30;99.90
60860;DHT22;46694;54.382;9.708;2023-06-26T10:33:52;22.40;99.90
60860;DHT22;46694;54.382;9.708;2023-06-26T10:36:32;22.50;99.90
60860;DHT22;46694;54.382;9.708;2023-06-26T10:39:11;22.50;99.90
60860;DHT22;46694;54.382;9.708;2023-06-26T10:41:54;22.60;99.90
60860;DHT22;46694;54.382;9.708;2023-06-26T10:44:42;22.80;99.90
60860;DHT22;46694;54.382;9.708;2023-06-26T10:47:32;22.80;99.90
60860;DHT22;46694;54.382;9.708;2023-06-26T10:50:27;22.90;99.90
60860;DHT22;46694;54.382;9.708;2023-06-26T10:56:06;22.90;99.90
60860;DHT22;46694;54.382;9.708;2023-06-26T10:58:48;22.70;99.90
60860;DHT22;46694;54.382;9.708;2023-06-26T11:01:27;22.60;99.90
60860;DHT22;46694;54.382;9.708;2023-06-26T11:04:07;22.50;99.90
60860;DHT22;46694;54.382;9.708;2023-06-26T11:06:47;22.60;99.90
60860;DHT22;46694;54.382;9.708;2023-06-26T11:09:27;22.80;99.90
60860;DHT22;46694;54.382;9.708;2023-06-26T11:12:07;23.20;99.90
60860;DHT22;46694;54.382;9.708;2023-06-26T11:14:47;23.50;99.90
60860;DHT22;46694;54.382;9.708;2023-06-26T11:17:27;23.80;99.90
60860;DHT22;46694;54.382;9.708;2023-06-26T11:20:12;24.20;99.90
60860;DHT22;46694;54.382;9.708;2023-06-26T11:22:54;24.40;99.90
60860;DHT22;46694;54.382;9.708;2023-06-26T11:25:36;24.60;99.90
60860;DHT22;46694;54.382;9.708;2023-06-26T11:28:15;25.00;99.90
60860;DHT22;46694;54.382;9.708;2023-06-26T11:30:55;25.30;99.90
60860;DHT22;46694;54.382;9.708;2023-06-26T11:33:35;25.40;99.90
60860;DHT22;46694;54.382;9.708;2023-06-26T11:36:14;25.40;99.90
60860;DHT22;46694;54.382;9.708;2023-06-26T11:38:58;25.50;99.90
60860;DHT22;46694;54.382;9.708;2023-06-26T11:41:40;25.70;99.90
60860;DHT22;46694;54.382;9.708;2023-06-26T11:44:21;25.70;99.90
60860;DHT22;46694;54.382;9.708;2023-06-26T11:47:00;25.30;99.90
60860;DHT22;46694;54.382;9.708;2023-06-26T11:49:42;25.10;99.90
60860;DHT22;46694;54.382;9.708;2023-06-26T11:52:22;24.90;99.90
60860;DHT22;46694;54.382;9.708;2023-06-26T11:55:02;24.80;99.90
60860;DHT22;46694;54.382;9.708;2023-06-26T11:57:42;24.80;99.90
60860;DHT22;46694;54.382;9.708;2023-06-26T12:00:21;25.00;99.90
60860;DHT22;46694;54.382;9.708;2023-06-26T12:03:01;25.10;99.90
60860;DHT22;46694;54.382;9.708;2023-06-26T12:05:42;25.10;99.90
60860;DHT22;46694;54.382;9.708;2023-06-26T12:08:24;25.30;99.90
60860;DHT22;46694;54.382;9.708;2023-06-26T12:11:04;25.60;99.90
60860;DHT22;46694;54.382;9.708;2023-06-26T12:13:45;25.60;99.90
60860;DHT22;46694;54.382;9.708;2023-06-26T12:16:28;25.80;99.90
60860;DHT22;46694;54.382;9.708;2023-06-26T12:19:09;26.00;99.90
60860;DHT22;46694;54.382;9.708;2023-06-26T12:21:49;25.90;99.90
60860;DHT22;46694;54.382;9.708;2023-06-26T12:24:31;25.80;99.90
60860;DHT22;46694;54.382;9.708;2023-06-26T12:27:13;25.70;99.90
60860;DHT22;46694;54.382;9.708;2023-06-26T12:29:54;25.80;99.90
60860;DHT22;46694;54.382;9.708;2023-06-26T12:32:34;26.00;99.90
60860;DHT22;46694;54.382;9.708;2023-06-26T12:35:14;26.00;99.90
60860;DHT22;46694;54.382;9.708;2023-06-26T12:37:54;26.00;99.90
60860;DHT22;46694;54.382;9.708;2023-06-26T12:40:34;26.00;99.90
60860;DHT22;46694;54.382;9.708;2023-06-26T12:43:22;26.00;99.60
60860;DHT22;46694;54.382;9.708;2023-06-26T12:46:03;26.00;99.30
60860;DHT22;46694;54.382;9.708;2023-06-26T12:48:43;26.00;99.40
60860;DHT22;46694;54.382;9.708;2023-06-26T12:51:25;26.10;99.30
60860;DHT22;46694;54.382;9.708;2023-06-26T12:54:06;26.30;98.90
60860;DHT22;46694;54.382;9.708;2023-06-26T12:56:46;26.10;98.00
60860;DHT22;46694;54.382;9.708;2023-06-26T12:59:26;25.70;97.80
60860;DHT22;46694;54.382;9.708;2023-06-26T13:02:06;25.30;98.00
60860;DHT22;46694;54.382;9.708;2023-06-26T13:04:47;24.90;98.20
60860;DHT22;46694;54.382;9.708;2023-06-26T13:07:27;24.50;98.60
60860;DHT22;46694;54.382;9.708;2023-06-26T13:10:07;24.30;99.00
60860;DHT22;46694;54.382;9.708;2023-06-26T13:12:47;24.40;99.10
60860;DHT22;46694;54.382;9.708;2023-06-26T13:15:26;24.40;98.40
60860;DHT22;46694;54.382;9.708;2023-06-26T13:18:06;24.30;98.40
60860;DHT22;46694;54.382;9.708;2023-06-26T13:20:46;24.30;98.70
60860;DHT22;46694;54.382;9.708;2023-06-26T13:23:25;24.40;99.00
60860;DHT22;46694;54.382;9.708;2023-06-26T13:26:06;24.70;99.20
60860;DHT22;46694;54.382;9.708;2023-06-26T13:28:45;24.90;98.50
60860;DHT22;46694;54.382;9.708;2023-06-26T13:31:25;24.90;98.30
60860;DHT22;46694;54.382;9.708;2023-06-26T13:34:05;24.70;97.90
60860;DHT22;46694;54.382;9.708;2023-06-26T13:36:45;24.40;98.00
60860;DHT22;46694;54.382;9.708;2023-06-26T13:39:24;24.40;98.20
60860;DHT22;46694;54.382;9.708;2023-06-26T13:42:04;24.40;98.20
60860;DHT22;46694;54.382;9.708;2023-06-26T13:44:43;24.40;98.10
60860;DHT22;46694;54.382;9.708;2023-06-26T13:47:23;24.40;98.30
60860;DHT22;46694;54.382;9.708;2023-06-26T13:50:04;24.60;98.20
60860;DHT22;46694;54.382;9.708;2023-06-26T13:52:45;24.70;97.30
60860;DHT22;46694;54.382;9.708;2023-06-26T13:55:24;24.70;96.70
60860;DHT22;46694;54.382;9.708;2023-06-26T13:58:05;24.60;96.70
60860;DHT22;46694;54.382;9.708;2023-06-26T14:00:44;24.50;96.90
60860;DHT22;46694;54.382;9.708;2023-06-26T14:03:25;24.50;97.00
60860;DHT22;46694;54.382;9.708;2023-06-26T14:06:05;24.50;97.10
60860;DHT22;46694;54.382;9.708;2023-06-26T14:08:44;24.60;97.10
60860;DHT22;46694;54.382;9.708;2023-06-26T14:11:24;24.60;96.90
60860;DHT22;46694;54.382;9.708;2023-06-26T14:14:04;24.60;96.90
60860;DHT22;46694;54.382;9.708;2023-06-26T14:16:44;24.40;97.00
60860;DHT22;46694;54.382;9.708;2023-06-26T14:19:23;24.50;96.70
60860;DHT22;46694;54.382;9.708;2023-06-26T14:22:03;24.40;96.40
60860;DHT22;46694;54.382;9.708;2023-06-26T14:24:43;24.40;96.50
60860;DHT22;46694;54.382;9.708;2023-06-26T14:27:26;24.40;96.50
60860;DHT22;46694;54.382;9.708;2023-06-26T14:30:06;24.30;96.20
60860;DHT22;46694;54.382;9.708;2023-06-26T14:32:47;24.10;96.20
60860;DHT22;46694;54.382;9.708;2023-06-26T14:35:26;23.90;96.40
60860;DHT22;46694;54.382;9.708;2023-06-26T14:38:06;23.80;96.60
60860;DHT22;46694;54.382;9.708;2023-06-26T14:40:45;23.80;96.70
60860;DHT22;46694;54.382;9.708;2023-06-26T14:43:25;23.80;97.00
60860;DHT22;46694;54.382;9.708;2023-06-26T14:46:05;23.80;97.30
60860;DHT22;46694;54.382;9.708;2023-06-26T14:48:44;23.80;97.60
60860;DHT22;46694;54.382;9.708;2023-06-26T14:51:25;23.70;97.40
60860;DHT22;46694;54.382;9.708;2023-06-26T14:54:05;23.60;97.60
60860;DHT22;46694;54.382;9.708;2023-06-26T14:56:45;23.50;97.80
60860;DHT22;46694;54.382;9.708;2023-06-26T14:59:25;23.40;97.70
60860;DHT22;46694;54.382;9.708;2023-06-26T15:02:04;23.30;97.70
60860;DHT22;46694;54.382;9.708;2023-06-26T15:04:45;23.10;97.90
60860;DHT22;46694;54.382;9.708;2023-06-26T15:07:25;23.00;97.90
60860;DHT22;46694;54.382;9.708;2023-06-26T15:10:05;23.10;98.00
60860;DHT22;46694;54.382;9.708;2023-06-26T15:12:45;23.10;98.20
60860;DHT22;46694;54.382;9.708;2023-06-26T15:15:25;23.00;97.80
60860;DHT22;46694;54.382;9.708;2023-06-26T15:18:04;23.00;97.90
60860;DHT22;46694;54.382;9.708;2023-06-26T15:20:45;23.00;98.00
60860;DHT22;46694;54.382;9.708;2023-06-26T15:23:25;23.10;98.00
60860;DHT22;46694;54.382;9.708;2023-06-26T15:26:06;23.20;98.20
60860;DHT22;46694;54.382;9.708;2023-06-26T15:28:46;23.20;98.50
60860;DHT22;46694;54.382;9.708;2023-06-26T15:31:28;23.10;98.70
60860;DHT22;46694;54.382;9.708;2023-06-26T15:34:09;23.10;98.90
60860;DHT22;46694;54.382;9.708;2023-06-26T15:36:49;23.00;99.10
60860;DHT22;46694;54.382;9.708;2023-06-26T15:39:29;22.90;99.40
60860;DHT22;46694;54.382;9.708;2023-06-26T15:42:08;22.80;99.70
60860;DHT22;46694;54.382;9.708;2023-06-26T15:44:48;22.80;99.80
60860;DHT22;46694;54.382;9.708;2023-06-26T15:47:27;22.80;99.90
60860;DHT22;46694;54.382;9.708;2023-06-26T15:50:08;22.90;99.90
60860;DHT22;46694;54.382;9.708;2023-06-26T15:52:48;22.90;99.90
60860;DHT22;46694;54.382;9.708;2023-06-26T15:55:28;23.00;99.90
60860;DHT22;46694;54.382;9.708;2023-06-26T15:58:08;23.00;99.90
60860;DHT22;46694;54.382;9.708;2023-06-26T16:00:47;22.90;99.90
60860;DHT22;46694;54.382;9.708;2023-06-26T16:03:27;22.60;99.90
60860;DHT22;46694;54.382;9.708;2023-06-26T16:06:08;22.40;99.90
60860;DHT22;46694;54.382;9.708;2023-06-26T16:08:48;22.40;99.90
60860;DHT22;46694;54.382;9.708;2023-06-26T16:11:27;22.50;99.90
60860;DHT22;46694;54.382;9.708;2023-06-26T16:14:07;22.50;99.90
60860;DHT22;46694;54.382;9.708;2023-06-26T16:16:46;22.40;99.90
60860;DHT22;46694;54.382;9.708;2023-06-26T16:19:26;22.30;99.90
60860;DHT22;46694;54.382;9.708;2023-06-26T16:22:06;22.30;99.90
60860;DHT22;46694;54.382;9.708;2023-06-26T16:24:47;22.30;99.90
60860;DHT22;46694;54.382;9.708;2023-06-26T16:27:27;22.30;99.90
60860;DHT22;46694;54.382;9.708;2023-06-26T16:30:07;22.20;99.90
60860;DHT22;46694;54.382;9.708;2023-06-26T16:32:47;22.00;99.90
60860;DHT22;46694;54.382;9.708;2023-06-26T16:35:27;21.90;99.90
60860;DHT22;46694;54.382;9.708;2023-06-26T16:38:08;22.00;99.90
60860;DHT22;46694;54.382;9.708;2023-06-26T16:40:51;22.00;99.90
60860;DHT22;46694;54.382;9.708;2023-06-26T16:43:30;22.10;99.90
60860;DHT22;46694;54.382;9.708;2023-06-26T16:46:10;22.20;99.90
60860;DHT22;46694;54.382;9.708;2023-06-26T16:48:49;22.20;99.90
60860;DHT22;46694;54.382;9.708;2023-06-26T16:51:29;22.30;99.90
60860;DHT22;46694;54.382;9.708;2023-06-26T16:54:08;22.20;99.90
60860;DHT22;46694;54.382;9.708;2023-06-26T16:56:49;22.10;99.90
60860;DHT22;46694;54.382;9.708;2023-06-26T16:59:28;22.00;99.90
60860;DHT22;46694;54.382;9.708;2023-06-26T17:02:08;21.90;99.90
60860;DHT22;46694;54.382;9.708;2023-06-26T17:04:47;21.90;99.80
60860;DHT22;46694;54.382;9.708;2023-06-26T17:07:27;21.80;99.90
60860;DHT22;46694;54.382;9.708;2023-06-26T17:10:08;21.90;99.90